<?xml version="1.0" encoding="UTF-8" standalone="no" ?>
<gpx xmlns="http://www.topografix.com/GPX/1/1" xmlns:xsi="http://www.w3.org/2001/XMLSchema-instance" xsi:schemaLocation="http://www.topografix.com/GPX/1/1 http://www.topografix.com/GPX/1/1/gpx.xsd" version="1.1" creator="VisuGPX - https://www.visugpx.com">
  <metadata>
    <name>Trail des Glières 2021 - 20 km</name>
  </metadata>
  <trk>
    <name><![CDATA[13176326-TDG-22-2021]]></name>
    <trkseg>
      <trkpt lat="45.99744" lon="6.25">
        <ele>679</ele>
        <time>2021-06-22T13:58:15Z</time>
      </trkpt>
      <trkpt lat="45.99901" lon="6.25056">
        <ele>688</ele>
        <time>2021-06-22T13:59:36Z</time>
      </trkpt>
      <trkpt lat="46.00015" lon="6.25118">
        <ele>694</ele>
        <time>2021-06-22T14:00:37Z</time>
      </trkpt>
      <trkpt lat="46.00066" lon="6.25168">
        <ele>696</ele>
        <time>2021-06-22T14:01:08Z</time>
      </trkpt>
      <trkpt lat="46.00083" lon="6.25234">
        <ele>700</ele>
        <time>2021-06-22T14:01:32Z</time>
      </trkpt>
      <trkpt lat="46.00089" lon="6.25356">
        <ele>702</ele>
        <time>2021-06-22T14:02:15Z</time>
      </trkpt>
      <trkpt lat="46.00085" lon="6.25417">
        <ele>703</ele>
        <time>2021-06-22T14:02:36Z</time>
      </trkpt>
      <trkpt lat="46.00093" lon="6.25489">
        <ele>704</ele>
        <time>2021-06-22T14:03:01Z</time>
      </trkpt>
      <trkpt lat="46.0011" lon="6.25529">
        <ele>706</ele>
        <time>2021-06-22T14:03:18Z</time>
      </trkpt>
      <trkpt lat="46.00182" lon="6.25666">
        <ele>705</ele>
        <time>2021-06-22T14:04:17Z</time>
      </trkpt>
      <trkpt lat="46.0026" lon="6.25824">
        <ele>714</ele>
        <time>2021-06-22T14:05:25Z</time>
      </trkpt>
      <trkpt lat="46.00293" lon="6.25869">
        <ele>716</ele>
        <time>2021-06-22T14:05:48Z</time>
      </trkpt>
      <trkpt lat="46.00405" lon="6.25961">
        <ele>722</ele>
        <time>2021-06-22T14:06:52Z</time>
      </trkpt>
      <trkpt lat="46.00448" lon="6.26053">
        <ele>724</ele>
        <time>2021-06-22T14:07:31Z</time>
      </trkpt>
      <trkpt lat="46.00538" lon="6.26179">
        <ele>729</ele>
        <time>2021-06-22T14:08:33Z</time>
      </trkpt>
      <trkpt lat="46.00592" lon="6.26199">
        <ele>731</ele>
        <time>2021-06-22T14:09:01Z</time>
      </trkpt>
      <trkpt lat="46.00625" lon="6.26224">
        <ele>731</ele>
        <time>2021-06-22T14:09:20Z</time>
      </trkpt>
      <trkpt lat="46.00644" lon="6.26245">
        <ele>731</ele>
        <time>2021-06-22T14:09:32Z</time>
      </trkpt>
      <trkpt lat="46.00652" lon="6.2627">
        <ele>732</ele>
        <time>2021-06-22T14:09:42Z</time>
      </trkpt>
      <trkpt lat="46.00699" lon="6.26288">
        <ele>734</ele>
        <time>2021-06-22T14:10:06Z</time>
      </trkpt>
      <trkpt lat="46.00725" lon="6.26322">
        <ele>736</ele>
        <time>2021-06-22T14:10:24Z</time>
      </trkpt>
      <trkpt lat="46.00752" lon="6.26382">
        <ele>739</ele>
        <time>2021-06-22T14:10:48Z</time>
      </trkpt>
      <trkpt lat="46.00789" lon="6.26425">
        <ele>742</ele>
        <time>2021-06-22T14:11:12Z</time>
      </trkpt>
      <trkpt lat="46.0082" lon="6.26478">
        <ele>743</ele>
        <time>2021-06-22T14:11:36Z</time>
      </trkpt>
      <trkpt lat="46.00852" lon="6.2656">
        <ele>746</ele>
        <time>2021-06-22T14:12:09Z</time>
      </trkpt>
      <trkpt lat="46.00885" lon="6.26622">
        <ele>749</ele>
        <time>2021-06-22T14:12:36Z</time>
      </trkpt>
      <trkpt lat="46.00911" lon="6.26646">
        <ele>752</ele>
        <time>2021-06-22T14:12:52Z</time>
      </trkpt>
      <trkpt lat="46.00943" lon="6.26637">
        <ele>753</ele>
        <time>2021-06-22T14:13:08Z</time>
      </trkpt>
      <trkpt lat="46.00966" lon="6.26644">
        <ele>754</ele>
        <time>2021-06-22T14:13:20Z</time>
      </trkpt>
      <trkpt lat="46.0098" lon="6.2666">
        <ele>755</ele>
        <time>2021-06-22T14:13:29Z</time>
      </trkpt>
      <trkpt lat="46.00993" lon="6.26698">
        <ele>755</ele>
        <time>2021-06-22T14:13:43Z</time>
      </trkpt>
      <trkpt lat="46.01012" lon="6.26739">
        <ele>757</ele>
        <time>2021-06-22T14:14:00Z</time>
      </trkpt>
      <trkpt lat="46.0102" lon="6.26772">
        <ele>758</ele>
        <time>2021-06-22T14:14:13Z</time>
      </trkpt>
      <trkpt lat="46.01028" lon="6.26825">
        <ele>760</ele>
        <time>2021-06-22T14:14:31Z</time>
      </trkpt>
      <trkpt lat="46.01028" lon="6.26896">
        <ele>760</ele>
        <time>2021-06-22T14:14:56Z</time>
      </trkpt>
      <trkpt lat="46.01032" lon="6.26961">
        <ele>758</ele>
        <time>2021-06-22T14:15:19Z</time>
      </trkpt>
      <trkpt lat="46.01025" lon="6.27003">
        <ele>756</ele>
        <time>2021-06-22T14:15:34Z</time>
      </trkpt>
      <trkpt lat="46.01006" lon="6.27036">
        <ele>755</ele>
        <time>2021-06-22T14:15:49Z</time>
      </trkpt>
      <trkpt lat="46.00956" lon="6.27159">
        <ele>755</ele>
        <time>2021-06-22T14:16:38Z</time>
      </trkpt>
      <trkpt lat="46.00957" lon="6.27201">
        <ele>758</ele>
        <time>2021-06-22T14:16:53Z</time>
      </trkpt>
      <trkpt lat="46.01016" lon="6.27318">
        <ele>769</ele>
        <time>2021-06-22T14:17:43Z</time>
      </trkpt>
      <trkpt lat="46.01041" lon="6.27406">
        <ele>773</ele>
        <time>2021-06-22T14:18:16Z</time>
      </trkpt>
      <trkpt lat="46.01042" lon="6.27456">
        <ele>777</ele>
        <time>2021-06-22T14:18:33Z</time>
      </trkpt>
      <trkpt lat="46.01076" lon="6.27632">
        <ele>792</ele>
        <time>2021-06-22T14:19:37Z</time>
      </trkpt>
      <trkpt lat="46.01129" lon="6.27714">
        <ele>798</ele>
        <time>2021-06-22T14:20:16Z</time>
      </trkpt>
      <trkpt lat="46.01199" lon="6.27874">
        <ele>805</ele>
        <time>2021-06-22T14:21:22Z</time>
      </trkpt>
      <trkpt lat="46.01203" lon="6.27912">
        <ele>806</ele>
        <time>2021-06-22T14:21:35Z</time>
      </trkpt>
      <trkpt lat="46.01173" lon="6.27962">
        <ele>812</ele>
        <time>2021-06-22T14:21:58Z</time>
      </trkpt>
      <trkpt lat="46.01167" lon="6.27998">
        <ele>814</ele>
        <time>2021-06-22T14:22:11Z</time>
      </trkpt>
      <trkpt lat="46.01148" lon="6.28019">
        <ele>816</ele>
        <time>2021-06-22T14:22:23Z</time>
      </trkpt>
      <trkpt lat="46.01061" lon="6.28138">
        <ele>834</ele>
        <time>2021-06-22T14:23:23Z</time>
      </trkpt>
      <trkpt lat="46.01037" lon="6.28187">
        <ele>842</ele>
        <time>2021-06-22T14:23:44Z</time>
      </trkpt>
      <trkpt lat="46.0098" lon="6.28259">
        <ele>860</ele>
        <time>2021-06-22T14:24:22Z</time>
      </trkpt>
      <trkpt lat="46.00949" lon="6.28302">
        <ele>872</ele>
        <time>2021-06-22T14:24:43Z</time>
      </trkpt>
      <trkpt lat="46.00944" lon="6.28349">
        <ele>879</ele>
        <time>2021-06-22T14:25:00Z</time>
      </trkpt>
      <trkpt lat="46.00913" lon="6.28419">
        <ele>893</ele>
        <time>2021-06-22T14:25:29Z</time>
      </trkpt>
      <trkpt lat="46.00896" lon="6.28484">
        <ele>905</ele>
        <time>2021-06-22T14:25:53Z</time>
      </trkpt>
      <trkpt lat="46.00878" lon="6.28534">
        <ele>919</ele>
        <time>2021-06-22T14:26:12Z</time>
      </trkpt>
      <trkpt lat="46.00869" lon="6.28572">
        <ele>928</ele>
        <time>2021-06-22T14:26:26Z</time>
      </trkpt>
      <trkpt lat="46.00872" lon="6.28604">
        <ele>934</ele>
        <time>2021-06-22T14:26:37Z</time>
      </trkpt>
      <trkpt lat="46.0086" lon="6.28658">
        <ele>948</ele>
        <time>2021-06-22T14:26:57Z</time>
      </trkpt>
      <trkpt lat="46.00825" lon="6.28789">
        <ele>977</ele>
        <time>2021-06-22T14:27:46Z</time>
      </trkpt>
      <trkpt lat="46.00805" lon="6.28843">
        <ele>987</ele>
        <time>2021-06-22T14:28:07Z</time>
      </trkpt>
      <trkpt lat="46.00776" lon="6.28871">
        <ele>998</ele>
        <time>2021-06-22T14:28:25Z</time>
      </trkpt>
      <trkpt lat="46.00695" lon="6.28845">
        <ele>1022</ele>
        <time>2021-06-22T14:29:06Z</time>
      </trkpt>
      <trkpt lat="46.0067" lon="6.28822">
        <ele>1030</ele>
        <time>2021-06-22T14:29:21Z</time>
      </trkpt>
      <trkpt lat="46.00638" lon="6.28775">
        <ele>1038</ele>
        <time>2021-06-22T14:29:44Z</time>
      </trkpt>
      <trkpt lat="46.00604" lon="6.28743">
        <ele>1047</ele>
        <time>2021-06-22T14:30:04Z</time>
      </trkpt>
      <trkpt lat="46.00563" lon="6.28727">
        <ele>1060</ele>
        <time>2021-06-22T14:30:26Z</time>
      </trkpt>
      <trkpt lat="46.00524" lon="6.28716">
        <ele>1071</ele>
        <time>2021-06-22T14:30:45Z</time>
      </trkpt>
      <trkpt lat="46.00443" lon="6.28673">
        <ele>1087</ele>
        <time>2021-06-22T14:31:29Z</time>
      </trkpt>
      <trkpt lat="46.00405" lon="6.28659">
        <ele>1096</ele>
        <time>2021-06-22T14:31:48Z</time>
      </trkpt>
      <trkpt lat="46.00371" lon="6.28652">
        <ele>1105</ele>
        <time>2021-06-22T14:32:05Z</time>
      </trkpt>
      <trkpt lat="46.00328" lon="6.28587">
        <ele>1112</ele>
        <time>2021-06-22T14:32:37Z</time>
      </trkpt>
      <trkpt lat="46.00296" lon="6.28562">
        <ele>1112</ele>
        <time>2021-06-22T14:32:55Z</time>
      </trkpt>
      <trkpt lat="46.00264" lon="6.28654">
        <ele>1125</ele>
        <time>2021-06-22T14:33:31Z</time>
      </trkpt>
      <trkpt lat="46.00253" lon="6.28693">
        <ele>1133</ele>
        <time>2021-06-22T14:33:45Z</time>
      </trkpt>
      <trkpt lat="46.00263" lon="6.28735">
        <ele>1140</ele>
        <time>2021-06-22T14:34:01Z</time>
      </trkpt>
      <trkpt lat="46.00224" lon="6.28733">
        <ele>1154</ele>
        <time>2021-06-22T14:34:20Z</time>
      </trkpt>
      <trkpt lat="46.00193" lon="6.287">
        <ele>1158</ele>
        <time>2021-06-22T14:34:40Z</time>
      </trkpt>
      <trkpt lat="46.0016" lon="6.28676">
        <ele>1164</ele>
        <time>2021-06-22T14:34:58Z</time>
      </trkpt>
      <trkpt lat="46.00128" lon="6.28646">
        <ele>1169</ele>
        <time>2021-06-22T14:35:17Z</time>
      </trkpt>
      <trkpt lat="46.00163" lon="6.28732">
        <ele>1179</ele>
        <time>2021-06-22T14:35:52Z</time>
      </trkpt>
      <trkpt lat="46.00175" lon="6.28752">
        <ele>1180</ele>
        <time>2021-06-22T14:36:01Z</time>
      </trkpt>
      <trkpt lat="46.00177" lon="6.28774">
        <ele>1188</ele>
        <time>2021-06-22T14:36:09Z</time>
      </trkpt>
      <trkpt lat="46.00185" lon="6.28802">
        <ele>1194</ele>
        <time>2021-06-22T14:36:19Z</time>
      </trkpt>
      <trkpt lat="46.00234" lon="6.28929">
        <ele>1212</ele>
        <time>2021-06-22T14:37:10Z</time>
      </trkpt>
      <trkpt lat="46.00242" lon="6.28986">
        <ele>1225</ele>
        <time>2021-06-22T14:37:30Z</time>
      </trkpt>
      <trkpt lat="46.00261" lon="6.29059">
        <ele>1233</ele>
        <time>2021-06-22T14:37:57Z</time>
      </trkpt>
      <trkpt lat="46.00262" lon="6.29078">
        <ele>1237</ele>
        <time>2021-06-22T14:38:04Z</time>
      </trkpt>
      <trkpt lat="46.00257" lon="6.29098">
        <ele>1243</ele>
        <time>2021-06-22T14:38:11Z</time>
      </trkpt>
      <trkpt lat="46.00243" lon="6.29087">
        <ele>1248</ele>
        <time>2021-06-22T14:38:19Z</time>
      </trkpt>
      <trkpt lat="46.00242" lon="6.29119">
        <ele>1255</ele>
        <time>2021-06-22T14:38:30Z</time>
      </trkpt>
      <trkpt lat="46.00265" lon="6.29158">
        <ele>1251</ele>
        <time>2021-06-22T14:38:48Z</time>
      </trkpt>
      <trkpt lat="46.0027" lon="6.29199">
        <ele>1255</ele>
        <time>2021-06-22T14:39:02Z</time>
      </trkpt>
      <trkpt lat="46.00256" lon="6.29224">
        <ele>1266</ele>
        <time>2021-06-22T14:39:14Z</time>
      </trkpt>
      <trkpt lat="46.0024" lon="6.29246">
        <ele>1278</ele>
        <time>2021-06-22T14:39:25Z</time>
      </trkpt>
      <trkpt lat="46.00236" lon="6.2931">
        <ele>1289</ele>
        <time>2021-06-22T14:39:47Z</time>
      </trkpt>
      <trkpt lat="46.00227" lon="6.29381">
        <ele>1305</ele>
        <time>2021-06-22T14:40:12Z</time>
      </trkpt>
      <trkpt lat="46.00236" lon="6.29409">
        <ele>1305</ele>
        <time>2021-06-22T14:40:23Z</time>
      </trkpt>
      <trkpt lat="46.00233" lon="6.29418">
        <ele>1308</ele>
        <time>2021-06-22T14:40:26Z</time>
      </trkpt>
      <trkpt lat="46.00218" lon="6.29407">
        <ele>1314</ele>
        <time>2021-06-22T14:40:35Z</time>
      </trkpt>
      <trkpt lat="46.00204" lon="6.29403">
        <ele>1320</ele>
        <time>2021-06-22T14:40:42Z</time>
      </trkpt>
      <trkpt lat="46.00197" lon="6.2936">
        <ele>1318</ele>
        <time>2021-06-22T14:40:57Z</time>
      </trkpt>
      <trkpt lat="46.00184" lon="6.29332">
        <ele>1321</ele>
        <time>2021-06-22T14:41:09Z</time>
      </trkpt>
      <trkpt lat="46.00175" lon="6.29289">
        <ele>1322</ele>
        <time>2021-06-22T14:41:24Z</time>
      </trkpt>
      <trkpt lat="46.00128" lon="6.29244">
        <ele>1344</ele>
        <time>2021-06-22T14:41:53Z</time>
      </trkpt>
      <trkpt lat="46.00115" lon="6.29245">
        <ele>1351</ele>
        <time>2021-06-22T14:41:59Z</time>
      </trkpt>
      <trkpt lat="46.00108" lon="6.29286">
        <ele>1359</ele>
        <time>2021-06-22T14:42:14Z</time>
      </trkpt>
      <trkpt lat="46.00114" lon="6.2934">
        <ele>1360</ele>
        <time>2021-06-22T14:42:33Z</time>
      </trkpt>
      <trkpt lat="46.00128" lon="6.29367">
        <ele>1356</ele>
        <time>2021-06-22T14:42:45Z</time>
      </trkpt>
      <trkpt lat="46.00121" lon="6.294">
        <ele>1363</ele>
        <time>2021-06-22T14:42:57Z</time>
      </trkpt>
      <trkpt lat="46.00113" lon="6.29425">
        <ele>1370</ele>
        <time>2021-06-22T14:43:06Z</time>
      </trkpt>
      <trkpt lat="46.001" lon="6.29438">
        <ele>1378</ele>
        <time>2021-06-22T14:43:14Z</time>
      </trkpt>
      <trkpt lat="46.00084" lon="6.29462">
        <ele>1387</ele>
        <time>2021-06-22T14:43:26Z</time>
      </trkpt>
      <trkpt lat="46.00063" lon="6.2947">
        <ele>1392</ele>
        <time>2021-06-22T14:43:37Z</time>
      </trkpt>
      <trkpt lat="46.00049" lon="6.29484">
        <ele>1396</ele>
        <time>2021-06-22T14:43:45Z</time>
      </trkpt>
      <trkpt lat="46.00025" lon="6.29543">
        <ele>1404</ele>
        <time>2021-06-22T14:44:09Z</time>
      </trkpt>
      <trkpt lat="46.00043" lon="6.29586">
        <ele>1404</ele>
        <time>2021-06-22T14:44:26Z</time>
      </trkpt>
      <trkpt lat="46.00065" lon="6.29614">
        <ele>1406</ele>
        <time>2021-06-22T14:44:41Z</time>
      </trkpt>
      <trkpt lat="46.00096" lon="6.29632">
        <ele>1403</ele>
        <time>2021-06-22T14:44:58Z</time>
      </trkpt>
      <trkpt lat="46.00131" lon="6.29712">
        <ele>1410</ele>
        <time>2021-06-22T14:45:31Z</time>
      </trkpt>
      <trkpt lat="46.00179" lon="6.29795">
        <ele>1417</ele>
        <time>2021-06-22T14:46:08Z</time>
      </trkpt>
      <trkpt lat="46.00242" lon="6.29898">
        <ele>1428</ele>
        <time>2021-06-22T14:46:56Z</time>
      </trkpt>
      <trkpt lat="46.00341" lon="6.30049">
        <ele>1429</ele>
        <time>2021-06-22T14:48:08Z</time>
      </trkpt>
      <trkpt lat="46.00353" lon="6.30083">
        <ele>1435</ele>
        <time>2021-06-22T14:48:21Z</time>
      </trkpt>
      <trkpt lat="46.0038" lon="6.30115">
        <ele>1435</ele>
        <time>2021-06-22T14:48:39Z</time>
      </trkpt>
      <trkpt lat="46.00404" lon="6.30177">
        <ele>1442</ele>
        <time>2021-06-22T14:49:03Z</time>
      </trkpt>
      <trkpt lat="46.00417" lon="6.30223">
        <ele>1448</ele>
        <time>2021-06-22T14:49:21Z</time>
      </trkpt>
      <trkpt lat="46.00451" lon="6.30274">
        <ele>1447</ele>
        <time>2021-06-22T14:49:45Z</time>
      </trkpt>
      <trkpt lat="46.00455" lon="6.30349">
        <ele>1458</ele>
        <time>2021-06-22T14:50:11Z</time>
      </trkpt>
      <trkpt lat="46.0042" lon="6.30527">
        <ele>1466</ele>
        <time>2021-06-22T14:51:16Z</time>
      </trkpt>
      <trkpt lat="46.0043" lon="6.30556">
        <ele>1466</ele>
        <time>2021-06-22T14:51:27Z</time>
      </trkpt>
      <trkpt lat="46.00446" lon="6.30573">
        <ele>1464</ele>
        <time>2021-06-22T14:51:37Z</time>
      </trkpt>
      <trkpt lat="46.00455" lon="6.30622">
        <ele>1471</ele>
        <time>2021-06-22T14:51:55Z</time>
      </trkpt>
      <trkpt lat="46.00456" lon="6.30652">
        <ele>1476</ele>
        <time>2021-06-22T14:52:05Z</time>
      </trkpt>
      <trkpt lat="46.00477" lon="6.30696">
        <ele>1483</ele>
        <time>2021-06-22T14:52:24Z</time>
      </trkpt>
      <trkpt lat="46.00521" lon="6.3073">
        <ele>1491</ele>
        <time>2021-06-22T14:52:49Z</time>
      </trkpt>
      <trkpt lat="46.00566" lon="6.30739">
        <ele>1498</ele>
        <time>2021-06-22T14:53:11Z</time>
      </trkpt>
      <trkpt lat="46.00633" lon="6.30772">
        <ele>1507</ele>
        <time>2021-06-22T14:53:47Z</time>
      </trkpt>
      <trkpt lat="46.00669" lon="6.30808">
        <ele>1515</ele>
        <time>2021-06-22T14:54:09Z</time>
      </trkpt>
      <trkpt lat="46.00683" lon="6.30848">
        <ele>1523</ele>
        <time>2021-06-22T14:54:24Z</time>
      </trkpt>
      <trkpt lat="46.00725" lon="6.31002">
        <ele>1548</ele>
        <time>2021-06-22T14:55:22Z</time>
      </trkpt>
      <trkpt lat="46.00724" lon="6.31034">
        <ele>1555</ele>
        <time>2021-06-22T14:55:33Z</time>
      </trkpt>
      <trkpt lat="46.00657" lon="6.30985">
        <ele>1571</ele>
        <time>2021-06-22T14:56:10Z</time>
      </trkpt>
      <trkpt lat="46.00619" lon="6.30962">
        <ele>1576</ele>
        <time>2021-06-22T14:56:31Z</time>
      </trkpt>
      <trkpt lat="46.00596" lon="6.30961">
        <ele>1583</ele>
        <time>2021-06-22T14:56:43Z</time>
      </trkpt>
      <trkpt lat="46.00568" lon="6.30951">
        <ele>1584</ele>
        <time>2021-06-22T14:56:57Z</time>
      </trkpt>
      <trkpt lat="46.0055" lon="6.30967">
        <ele>1591</ele>
        <time>2021-06-22T14:57:08Z</time>
      </trkpt>
      <trkpt lat="46.00587" lon="6.31039">
        <ele>1606</ele>
        <time>2021-06-22T14:57:39Z</time>
      </trkpt>
      <trkpt lat="46.00618" lon="6.31203">
        <ele>1636</ele>
        <time>2021-06-22T14:58:38Z</time>
      </trkpt>
      <trkpt lat="46.00655" lon="6.31298">
        <ele>1650</ele>
        <time>2021-06-22T14:59:16Z</time>
      </trkpt>
      <trkpt lat="46.00676" lon="6.3137">
        <ele>1656</ele>
        <time>2021-06-22T14:59:43Z</time>
      </trkpt>
      <trkpt lat="46.00662" lon="6.31376">
        <ele>1667</ele>
        <time>2021-06-22T14:59:50Z</time>
      </trkpt>
      <trkpt lat="46.00648" lon="6.31366">
        <ele>1673</ele>
        <time>2021-06-22T14:59:58Z</time>
      </trkpt>
      <trkpt lat="46.00634" lon="6.31347">
        <ele>1677</ele>
        <time>2021-06-22T15:00:08Z</time>
      </trkpt>
      <trkpt lat="46.00609" lon="6.31337">
        <ele>1687</ele>
        <time>2021-06-22T15:00:21Z</time>
      </trkpt>
      <trkpt lat="46.0059" lon="6.31326">
        <ele>1694</ele>
        <time>2021-06-22T15:00:31Z</time>
      </trkpt>
      <trkpt lat="46.0058" lon="6.31329">
        <ele>1701</ele>
        <time>2021-06-22T15:00:36Z</time>
      </trkpt>
      <trkpt lat="46.00571" lon="6.31316">
        <ele>1703</ele>
        <time>2021-06-22T15:00:42Z</time>
      </trkpt>
      <trkpt lat="46.00535" lon="6.31291">
        <ele>1723</ele>
        <time>2021-06-22T15:01:02Z</time>
      </trkpt>
      <trkpt lat="46.00518" lon="6.31313">
        <ele>1746</ele>
        <time>2021-06-22T15:01:14Z</time>
      </trkpt>
      <trkpt lat="46.00504" lon="6.3134">
        <ele>1767</ele>
        <time>2021-06-22T15:01:25Z</time>
      </trkpt>
      <trkpt lat="46.00482" lon="6.31361">
        <ele>1781</ele>
        <time>2021-06-22T15:01:39Z</time>
      </trkpt>
      <trkpt lat="46.00473" lon="6.31382">
        <ele>1787</ele>
        <time>2021-06-22T15:01:47Z</time>
      </trkpt>
      <trkpt lat="46.00478" lon="6.31398">
        <ele>1789</ele>
        <time>2021-06-22T15:01:53Z</time>
      </trkpt>
      <trkpt lat="46.005" lon="6.3142">
        <ele>1787</ele>
        <time>2021-06-22T15:02:07Z</time>
      </trkpt>
      <trkpt lat="46.00538" lon="6.31487">
        <ele>1788</ele>
        <time>2021-06-22T15:02:37Z</time>
      </trkpt>
      <trkpt lat="46.0055" lon="6.31549">
        <ele>1802</ele>
        <time>2021-06-22T15:02:59Z</time>
      </trkpt>
      <trkpt lat="46.0057" lon="6.31581">
        <ele>1807</ele>
        <time>2021-06-22T15:03:14Z</time>
      </trkpt>
      <trkpt lat="46.00573" lon="6.3161">
        <ele>1813</ele>
        <time>2021-06-22T15:03:24Z</time>
      </trkpt>
      <trkpt lat="46.0057" lon="6.31643">
        <ele>1820</ele>
        <time>2021-06-22T15:03:36Z</time>
      </trkpt>
      <trkpt lat="46.00554" lon="6.31683">
        <ele>1829</ele>
        <time>2021-06-22T15:03:52Z</time>
      </trkpt>
      <trkpt lat="46.00559" lon="6.31715">
        <ele>1828</ele>
        <time>2021-06-22T15:04:03Z</time>
      </trkpt>
      <trkpt lat="46.00558" lon="6.31768">
        <ele>1830</ele>
        <time>2021-06-22T15:04:22Z</time>
      </trkpt>
      <trkpt lat="46.00567" lon="6.318">
        <ele>1830</ele>
        <time>2021-06-22T15:04:34Z</time>
      </trkpt>
      <trkpt lat="46.00568" lon="6.31811">
        <ele>1830</ele>
        <time>2021-06-22T15:04:38Z</time>
      </trkpt>
      <trkpt lat="46.00566" lon="6.3183">
        <ele>1833</ele>
        <time>2021-06-22T15:04:44Z</time>
      </trkpt>
      <trkpt lat="46.00553" lon="6.31877">
        <ele>1835</ele>
        <time>2021-06-22T15:05:02Z</time>
      </trkpt>
      <trkpt lat="46.00536" lon="6.31881">
        <ele>1846</ele>
        <time>2021-06-22T15:05:11Z</time>
      </trkpt>
      <trkpt lat="46.00518" lon="6.31914">
        <ele>1860</ele>
        <time>2021-06-22T15:05:25Z</time>
      </trkpt>
      <trkpt lat="46.00503" lon="6.31955">
        <ele>1873</ele>
        <time>2021-06-22T15:05:41Z</time>
      </trkpt>
      <trkpt lat="46.00485" lon="6.32039">
        <ele>1878</ele>
        <time>2021-06-22T15:06:12Z</time>
      </trkpt>
      <trkpt lat="46.00468" lon="6.32077">
        <ele>1884</ele>
        <time>2021-06-22T15:06:28Z</time>
      </trkpt>
      <trkpt lat="46.00438" lon="6.32122">
        <ele>1906</ele>
        <time>2021-06-22T15:06:49Z</time>
      </trkpt>
      <trkpt lat="46.00436" lon="6.32136">
        <ele>1910</ele>
        <time>2021-06-22T15:06:54Z</time>
      </trkpt>
      <trkpt lat="46.00438" lon="6.32145">
        <ele>1909</ele>
        <time>2021-06-22T15:06:57Z</time>
      </trkpt>
      <trkpt lat="46.00434" lon="6.32154">
        <ele>1914</ele>
        <time>2021-06-22T15:07:01Z</time>
      </trkpt>
      <trkpt lat="46.00432" lon="6.32172">
        <ele>1918</ele>
        <time>2021-06-22T15:07:07Z</time>
      </trkpt>
      <trkpt lat="46.00434" lon="6.32187">
        <ele>1919</ele>
        <time>2021-06-22T15:07:13Z</time>
      </trkpt>
      <trkpt lat="46.00428" lon="6.32212">
        <ele>1928</ele>
        <time>2021-06-22T15:07:22Z</time>
      </trkpt>
      <trkpt lat="46.00412" lon="6.32248">
        <ele>1947</ele>
        <time>2021-06-22T15:07:37Z</time>
      </trkpt>
      <trkpt lat="46.0041" lon="6.32262">
        <ele>1948</ele>
        <time>2021-06-22T15:07:42Z</time>
      </trkpt>
      <trkpt lat="46.00412" lon="6.32278">
        <ele>1948</ele>
        <time>2021-06-22T15:07:47Z</time>
      </trkpt>
      <trkpt lat="46.00408" lon="6.32286">
        <ele>1949</ele>
        <time>2021-06-22T15:07:51Z</time>
      </trkpt>
      <trkpt lat="46.00402" lon="6.32332">
        <ele>1952</ele>
        <time>2021-06-22T15:08:07Z</time>
      </trkpt>
      <trkpt lat="46.00402" lon="6.32376">
        <ele>1954</ele>
        <time>2021-06-22T15:08:22Z</time>
      </trkpt>
      <trkpt lat="46.00404" lon="6.32385">
        <ele>1953</ele>
        <time>2021-06-22T15:08:26Z</time>
      </trkpt>
      <trkpt lat="46.00397" lon="6.32411">
        <ele>1957</ele>
        <time>2021-06-22T15:08:35Z</time>
      </trkpt>
      <trkpt lat="46.0039" lon="6.32425">
        <ele>1961</ele>
        <time>2021-06-22T15:08:41Z</time>
      </trkpt>
      <trkpt lat="46.00383" lon="6.32428">
        <ele>1965</ele>
        <time>2021-06-22T15:08:45Z</time>
      </trkpt>
      <trkpt lat="46.0038" lon="6.32438">
        <ele>1967</ele>
        <time>2021-06-22T15:08:49Z</time>
      </trkpt>
      <trkpt lat="46.00385" lon="6.3245">
        <ele>1964</ele>
        <time>2021-06-22T15:08:54Z</time>
      </trkpt>
      <trkpt lat="46.00383" lon="6.32476">
        <ele>1966</ele>
        <time>2021-06-22T15:09:03Z</time>
      </trkpt>
      <trkpt lat="46.00394" lon="6.32509">
        <ele>1958</ele>
        <time>2021-06-22T15:09:16Z</time>
      </trkpt>
      <trkpt lat="46.00395" lon="6.3252">
        <ele>1953</ele>
        <time>2021-06-22T15:09:19Z</time>
      </trkpt>
      <trkpt lat="46.00374" lon="6.32462">
        <ele>1970</ele>
        <time>2021-06-22T15:09:42Z</time>
      </trkpt>
      <trkpt lat="46.00358" lon="6.32437">
        <ele>1978</ele>
        <time>2021-06-22T15:09:54Z</time>
      </trkpt>
      <trkpt lat="46.00324" lon="6.32397">
        <ele>1986</ele>
        <time>2021-06-22T15:10:16Z</time>
      </trkpt>
      <trkpt lat="46.00308" lon="6.3239">
        <ele>1983</ele>
        <time>2021-06-22T15:10:24Z</time>
      </trkpt>
      <trkpt lat="46.00288" lon="6.32363">
        <ele>1979</ele>
        <time>2021-06-22T15:10:38Z</time>
      </trkpt>
      <trkpt lat="46.00245" lon="6.3229">
        <ele>1970</ele>
        <time>2021-06-22T15:11:11Z</time>
      </trkpt>
      <trkpt lat="46.00226" lon="6.32246">
        <ele>1964</ele>
        <time>2021-06-22T15:11:29Z</time>
      </trkpt>
      <trkpt lat="46.00208" lon="6.32228">
        <ele>1961</ele>
        <time>2021-06-22T15:11:40Z</time>
      </trkpt>
      <trkpt lat="46.00157" lon="6.32127">
        <ele>1952</ele>
        <time>2021-06-22T15:12:24Z</time>
      </trkpt>
      <trkpt lat="46.00145" lon="6.32087">
        <ele>1948</ele>
        <time>2021-06-22T15:12:39Z</time>
      </trkpt>
      <trkpt lat="46.00139" lon="6.32075">
        <ele>1946</ele>
        <time>2021-06-22T15:12:44Z</time>
      </trkpt>
      <trkpt lat="46.00111" lon="6.32087">
        <ele>1945</ele>
        <time>2021-06-22T15:12:59Z</time>
      </trkpt>
      <trkpt lat="46.00085" lon="6.32075">
        <ele>1942</ele>
        <time>2021-06-22T15:13:12Z</time>
      </trkpt>
      <trkpt lat="46.00063" lon="6.32054">
        <ele>1937</ele>
        <time>2021-06-22T15:13:25Z</time>
      </trkpt>
      <trkpt lat="46.00051" lon="6.32022">
        <ele>1934</ele>
        <time>2021-06-22T15:13:38Z</time>
      </trkpt>
      <trkpt lat="46.00033" lon="6.32007">
        <ele>1931</ele>
        <time>2021-06-22T15:13:48Z</time>
      </trkpt>
      <trkpt lat="46.00017" lon="6.31974">
        <ele>1928</ele>
        <time>2021-06-22T15:14:02Z</time>
      </trkpt>
      <trkpt lat="46.0001" lon="6.31969">
        <ele>1928</ele>
        <time>2021-06-22T15:14:06Z</time>
      </trkpt>
      <trkpt lat="45.99985" lon="6.31937">
        <ele>1925</ele>
        <time>2021-06-22T15:14:23Z</time>
      </trkpt>
      <trkpt lat="45.99954" lon="6.31874">
        <ele>1920</ele>
        <time>2021-06-22T15:14:50Z</time>
      </trkpt>
      <trkpt lat="45.9994" lon="6.31858">
        <ele>1919</ele>
        <time>2021-06-22T15:14:59Z</time>
      </trkpt>
      <trkpt lat="45.99934" lon="6.31838">
        <ele>1919</ele>
        <time>2021-06-22T15:15:06Z</time>
      </trkpt>
      <trkpt lat="45.99911" lon="6.31791">
        <ele>1915</ele>
        <time>2021-06-22T15:15:26Z</time>
      </trkpt>
      <trkpt lat="45.99907" lon="6.31768">
        <ele>1914</ele>
        <time>2021-06-22T15:15:35Z</time>
      </trkpt>
      <trkpt lat="45.99896" lon="6.31768">
        <ele>1912</ele>
        <time>2021-06-22T15:15:40Z</time>
      </trkpt>
      <trkpt lat="45.99888" lon="6.31757">
        <ele>1911</ele>
        <time>2021-06-22T15:15:46Z</time>
      </trkpt>
      <trkpt lat="45.9988" lon="6.31752">
        <ele>1910</ele>
        <time>2021-06-22T15:15:50Z</time>
      </trkpt>
      <trkpt lat="45.99865" lon="6.31718">
        <ele>1906</ele>
        <time>2021-06-22T15:16:04Z</time>
      </trkpt>
      <trkpt lat="45.9986" lon="6.31695">
        <ele>1904</ele>
        <time>2021-06-22T15:16:13Z</time>
      </trkpt>
      <trkpt lat="45.99854" lon="6.31688">
        <ele>1904</ele>
        <time>2021-06-22T15:16:16Z</time>
      </trkpt>
      <trkpt lat="45.99849" lon="6.31657">
        <ele>1902</ele>
        <time>2021-06-22T15:16:27Z</time>
      </trkpt>
      <trkpt lat="45.99841" lon="6.31636">
        <ele>1900</ele>
        <time>2021-06-22T15:16:36Z</time>
      </trkpt>
      <trkpt lat="45.99818" lon="6.31591">
        <ele>1896</ele>
        <time>2021-06-22T15:16:55Z</time>
      </trkpt>
      <trkpt lat="45.99799" lon="6.31529">
        <ele>1895</ele>
        <time>2021-06-22T15:17:19Z</time>
      </trkpt>
      <trkpt lat="45.99785" lon="6.31518">
        <ele>1896</ele>
        <time>2021-06-22T15:17:27Z</time>
      </trkpt>
      <trkpt lat="45.99756" lon="6.31472">
        <ele>1894</ele>
        <time>2021-06-22T15:17:48Z</time>
      </trkpt>
      <trkpt lat="45.99752" lon="6.31452">
        <ele>1892</ele>
        <time>2021-06-22T15:17:56Z</time>
      </trkpt>
      <trkpt lat="45.99753" lon="6.31437">
        <ele>1889</ele>
        <time>2021-06-22T15:18:01Z</time>
      </trkpt>
      <trkpt lat="45.99747" lon="6.31421">
        <ele>1887</ele>
        <time>2021-06-22T15:18:07Z</time>
      </trkpt>
      <trkpt lat="45.99756" lon="6.3138">
        <ele>1878</ele>
        <time>2021-06-22T15:18:22Z</time>
      </trkpt>
      <trkpt lat="45.99755" lon="6.31358">
        <ele>1873</ele>
        <time>2021-06-22T15:18:30Z</time>
      </trkpt>
      <trkpt lat="45.99757" lon="6.31349">
        <ele>1870</ele>
        <time>2021-06-22T15:18:33Z</time>
      </trkpt>
      <trkpt lat="45.99754" lon="6.31337">
        <ele>1868</ele>
        <time>2021-06-22T15:18:37Z</time>
      </trkpt>
      <trkpt lat="45.99759" lon="6.31331">
        <ele>1866</ele>
        <time>2021-06-22T15:18:41Z</time>
      </trkpt>
      <trkpt lat="45.9975" lon="6.31301">
        <ele>1862</ele>
        <time>2021-06-22T15:18:52Z</time>
      </trkpt>
      <trkpt lat="45.99748" lon="6.31269">
        <ele>1856</ele>
        <time>2021-06-22T15:19:03Z</time>
      </trkpt>
      <trkpt lat="45.99741" lon="6.31237">
        <ele>1851</ele>
        <time>2021-06-22T15:19:15Z</time>
      </trkpt>
      <trkpt lat="45.99731" lon="6.31212">
        <ele>1848</ele>
        <time>2021-06-22T15:19:25Z</time>
      </trkpt>
      <trkpt lat="45.99712" lon="6.31209">
        <ele>1843</ele>
        <time>2021-06-22T15:19:34Z</time>
      </trkpt>
      <trkpt lat="45.9969" lon="6.31212">
        <ele>1838</ele>
        <time>2021-06-22T15:19:46Z</time>
      </trkpt>
      <trkpt lat="45.99674" lon="6.31202">
        <ele>1835</ele>
        <time>2021-06-22T15:19:54Z</time>
      </trkpt>
      <trkpt lat="45.99597" lon="6.31114">
        <ele>1809</ele>
        <time>2021-06-22T15:20:43Z</time>
      </trkpt>
      <trkpt lat="45.99562" lon="6.3103">
        <ele>1793</ele>
        <time>2021-06-22T15:21:18Z</time>
      </trkpt>
      <trkpt lat="45.99549" lon="6.31026">
        <ele>1789</ele>
        <time>2021-06-22T15:21:24Z</time>
      </trkpt>
      <trkpt lat="45.99536" lon="6.3103">
        <ele>1786</ele>
        <time>2021-06-22T15:21:31Z</time>
      </trkpt>
      <trkpt lat="45.99515" lon="6.31047">
        <ele>1780</ele>
        <time>2021-06-22T15:21:43Z</time>
      </trkpt>
      <trkpt lat="45.99486" lon="6.3103">
        <ele>1773</ele>
        <time>2021-06-22T15:21:59Z</time>
      </trkpt>
      <trkpt lat="45.9946" lon="6.31031">
        <ele>1768</ele>
        <time>2021-06-22T15:22:12Z</time>
      </trkpt>
      <trkpt lat="45.99434" lon="6.31023">
        <ele>1765</ele>
        <time>2021-06-22T15:22:25Z</time>
      </trkpt>
      <trkpt lat="45.99415" lon="6.3102">
        <ele>1762</ele>
        <time>2021-06-22T15:22:34Z</time>
      </trkpt>
      <trkpt lat="45.99397" lon="6.31004">
        <ele>1762</ele>
        <time>2021-06-22T15:22:45Z</time>
      </trkpt>
      <trkpt lat="45.9939" lon="6.30989">
        <ele>1761</ele>
        <time>2021-06-22T15:22:51Z</time>
      </trkpt>
      <trkpt lat="45.99233" lon="6.30853">
        <ele>1716</ele>
        <time>2021-06-22T15:24:23Z</time>
      </trkpt>
      <trkpt lat="45.99145" lon="6.30755">
        <ele>1672</ele>
        <time>2021-06-22T15:25:19Z</time>
      </trkpt>
      <trkpt lat="45.99094" lon="6.30632">
        <ele>1636</ele>
        <time>2021-06-22T15:26:08Z</time>
      </trkpt>
      <trkpt lat="45.99091" lon="6.30581">
        <ele>1630</ele>
        <time>2021-06-22T15:26:26Z</time>
      </trkpt>
      <trkpt lat="45.99061" lon="6.30599">
        <ele>1618</ele>
        <time>2021-06-22T15:26:43Z</time>
      </trkpt>
      <trkpt lat="45.99052" lon="6.30622">
        <ele>1617</ele>
        <time>2021-06-22T15:26:52Z</time>
      </trkpt>
      <trkpt lat="45.99023" lon="6.30651">
        <ele>1607</ele>
        <time>2021-06-22T15:27:09Z</time>
      </trkpt>
      <trkpt lat="45.98973" lon="6.30672">
        <ele>1591</ele>
        <time>2021-06-22T15:27:35Z</time>
      </trkpt>
      <trkpt lat="45.98948" lon="6.30663">
        <ele>1581</ele>
        <time>2021-06-22T15:27:48Z</time>
      </trkpt>
      <trkpt lat="45.98947" lon="6.30603">
        <ele>1579</ele>
        <time>2021-06-22T15:28:09Z</time>
      </trkpt>
      <trkpt lat="45.98936" lon="6.30557">
        <ele>1575</ele>
        <time>2021-06-22T15:28:26Z</time>
      </trkpt>
      <trkpt lat="45.98938" lon="6.30489">
        <ele>1571</ele>
        <time>2021-06-22T15:28:50Z</time>
      </trkpt>
      <trkpt lat="45.98945" lon="6.30434">
        <ele>1570</ele>
        <time>2021-06-22T15:29:09Z</time>
      </trkpt>
      <trkpt lat="45.98957" lon="6.30384">
        <ele>1567</ele>
        <time>2021-06-22T15:29:28Z</time>
      </trkpt>
      <trkpt lat="45.98976" lon="6.30358">
        <ele>1566</ele>
        <time>2021-06-22T15:29:41Z</time>
      </trkpt>
      <trkpt lat="45.98988" lon="6.3033">
        <ele>1563</ele>
        <time>2021-06-22T15:29:52Z</time>
      </trkpt>
      <trkpt lat="45.99021" lon="6.30195">
        <ele>1554</ele>
        <time>2021-06-22T15:30:42Z</time>
      </trkpt>
      <trkpt lat="45.99066" lon="6.30106">
        <ele>1541</ele>
        <time>2021-06-22T15:31:20Z</time>
      </trkpt>
      <trkpt lat="45.99171" lon="6.29958">
        <ele>1512</ele>
        <time>2021-06-22T15:32:34Z</time>
      </trkpt>
      <trkpt lat="45.99181" lon="6.29928">
        <ele>1502</ele>
        <time>2021-06-22T15:32:45Z</time>
      </trkpt>
      <trkpt lat="45.99183" lon="6.2988">
        <ele>1481</ele>
        <time>2021-06-22T15:33:02Z</time>
      </trkpt>
      <trkpt lat="45.99194" lon="6.2984">
        <ele>1465</ele>
        <time>2021-06-22T15:33:17Z</time>
      </trkpt>
      <trkpt lat="45.99245" lon="6.29826">
        <ele>1463</ele>
        <time>2021-06-22T15:33:43Z</time>
      </trkpt>
      <trkpt lat="45.99362" lon="6.29771">
        <ele>1459</ele>
        <time>2021-06-22T15:34:45Z</time>
      </trkpt>
      <trkpt lat="45.99422" lon="6.29725">
        <ele>1460</ele>
        <time>2021-06-22T15:35:19Z</time>
      </trkpt>
      <trkpt lat="45.99452" lon="6.29675">
        <ele>1436</ele>
        <time>2021-06-22T15:35:42Z</time>
      </trkpt>
      <trkpt lat="45.9951" lon="6.29611">
        <ele>1426</ele>
        <time>2021-06-22T15:36:18Z</time>
      </trkpt>
      <trkpt lat="45.99563" lon="6.29594">
        <ele>1432</ele>
        <time>2021-06-22T15:36:45Z</time>
      </trkpt>
      <trkpt lat="45.99585" lon="6.2959">
        <ele>1437</ele>
        <time>2021-06-22T15:36:56Z</time>
      </trkpt>
      <trkpt lat="45.99601" lon="6.29548">
        <ele>1425</ele>
        <time>2021-06-22T15:37:13Z</time>
      </trkpt>
      <trkpt lat="45.99643" lon="6.29508">
        <ele>1433</ele>
        <time>2021-06-22T15:37:38Z</time>
      </trkpt>
      <trkpt lat="45.99655" lon="6.29483">
        <ele>1435</ele>
        <time>2021-06-22T15:37:49Z</time>
      </trkpt>
      <trkpt lat="45.99663" lon="6.29428">
        <ele>1433</ele>
        <time>2021-06-22T15:38:08Z</time>
      </trkpt>
      <trkpt lat="45.99662" lon="6.29379">
        <ele>1428</ele>
        <time>2021-06-22T15:38:25Z</time>
      </trkpt>
      <trkpt lat="45.99655" lon="6.29333">
        <ele>1420</ele>
        <time>2021-06-22T15:38:42Z</time>
      </trkpt>
      <trkpt lat="45.99658" lon="6.29298">
        <ele>1414</ele>
        <time>2021-06-22T15:38:54Z</time>
      </trkpt>
      <trkpt lat="45.99678" lon="6.29243">
        <ele>1421</ele>
        <time>2021-06-22T15:39:16Z</time>
      </trkpt>
      <trkpt lat="45.99681" lon="6.29209">
        <ele>1420</ele>
        <time>2021-06-22T15:39:28Z</time>
      </trkpt>
      <trkpt lat="45.99678" lon="6.29173">
        <ele>1411</ele>
        <time>2021-06-22T15:39:40Z</time>
      </trkpt>
      <trkpt lat="45.99669" lon="6.2913">
        <ele>1410</ele>
        <time>2021-06-22T15:39:56Z</time>
      </trkpt>
      <trkpt lat="45.99643" lon="6.29038">
        <ele>1406</ele>
        <time>2021-06-22T15:40:30Z</time>
      </trkpt>
      <trkpt lat="45.99625" lon="6.29004">
        <ele>1392</ele>
        <time>2021-06-22T15:40:45Z</time>
      </trkpt>
      <trkpt lat="45.9959" lon="6.28898">
        <ele>1361</ele>
        <time>2021-06-22T15:41:26Z</time>
      </trkpt>
      <trkpt lat="45.99589" lon="6.28871">
        <ele>1354</ele>
        <time>2021-06-22T15:41:35Z</time>
      </trkpt>
      <trkpt lat="45.99623" lon="6.28803">
        <ele>1365</ele>
        <time>2021-06-22T15:42:04Z</time>
      </trkpt>
      <trkpt lat="45.99622" lon="6.28735">
        <ele>1347</ele>
        <time>2021-06-22T15:42:28Z</time>
      </trkpt>
      <trkpt lat="45.99624" lon="6.28709">
        <ele>1345</ele>
        <time>2021-06-22T15:42:37Z</time>
      </trkpt>
      <trkpt lat="45.99637" lon="6.28662">
        <ele>1351</ele>
        <time>2021-06-22T15:42:55Z</time>
      </trkpt>
      <trkpt lat="45.99634" lon="6.2863">
        <ele>1351</ele>
        <time>2021-06-22T15:43:06Z</time>
      </trkpt>
      <trkpt lat="45.99614" lon="6.28563">
        <ele>1343</ele>
        <time>2021-06-22T15:43:31Z</time>
      </trkpt>
      <trkpt lat="45.99562" lon="6.28424">
        <ele>1326</ele>
        <time>2021-06-22T15:44:26Z</time>
      </trkpt>
      <trkpt lat="45.99472" lon="6.28231">
        <ele>1307</ele>
        <time>2021-06-22T15:45:47Z</time>
      </trkpt>
      <trkpt lat="45.99466" lon="6.28152">
        <ele>1306</ele>
        <time>2021-06-22T15:46:15Z</time>
      </trkpt>
      <trkpt lat="45.99438" lon="6.27958">
        <ele>1283</ele>
        <time>2021-06-22T15:47:24Z</time>
      </trkpt>
      <trkpt lat="45.9944" lon="6.27906">
        <ele>1279</ele>
        <time>2021-06-22T15:47:42Z</time>
      </trkpt>
      <trkpt lat="45.99437" lon="6.27805">
        <ele>1267</ele>
        <time>2021-06-22T15:48:17Z</time>
      </trkpt>
      <trkpt lat="45.99439" lon="6.27769">
        <ele>1262</ele>
        <time>2021-06-22T15:48:29Z</time>
      </trkpt>
      <trkpt lat="45.99454" lon="6.27722">
        <ele>1262</ele>
        <time>2021-06-22T15:48:47Z</time>
      </trkpt>
      <trkpt lat="45.99454" lon="6.277">
        <ele>1259</ele>
        <time>2021-06-22T15:48:55Z</time>
      </trkpt>
      <trkpt lat="45.9946" lon="6.27672">
        <ele>1257</ele>
        <time>2021-06-22T15:49:05Z</time>
      </trkpt>
      <trkpt lat="45.99469" lon="6.27657">
        <ele>1256</ele>
        <time>2021-06-22T15:49:12Z</time>
      </trkpt>
      <trkpt lat="45.99479" lon="6.27653">
        <ele>1257</ele>
        <time>2021-06-22T15:49:17Z</time>
      </trkpt>
      <trkpt lat="45.99465" lon="6.27623">
        <ele>1249</ele>
        <time>2021-06-22T15:49:30Z</time>
      </trkpt>
      <trkpt lat="45.99475" lon="6.27624">
        <ele>1249</ele>
        <time>2021-06-22T15:49:35Z</time>
      </trkpt>
      <trkpt lat="45.9948" lon="6.27618">
        <ele>1248</ele>
        <time>2021-06-22T15:49:38Z</time>
      </trkpt>
      <trkpt lat="45.99474" lon="6.27612">
        <ele>1246</ele>
        <time>2021-06-22T15:49:42Z</time>
      </trkpt>
      <trkpt lat="45.99479" lon="6.27605">
        <ele>1244</ele>
        <time>2021-06-22T15:49:45Z</time>
      </trkpt>
      <trkpt lat="45.99494" lon="6.2761">
        <ele>1245</ele>
        <time>2021-06-22T15:49:53Z</time>
      </trkpt>
      <trkpt lat="45.99488" lon="6.2758">
        <ele>1236</ele>
        <time>2021-06-22T15:50:04Z</time>
      </trkpt>
      <trkpt lat="45.99499" lon="6.27575">
        <ele>1233</ele>
        <time>2021-06-22T15:50:10Z</time>
      </trkpt>
      <trkpt lat="45.995" lon="6.27559">
        <ele>1226</ele>
        <time>2021-06-22T15:50:15Z</time>
      </trkpt>
      <trkpt lat="45.9946" lon="6.27487">
        <ele>1212</ele>
        <time>2021-06-22T15:50:47Z</time>
      </trkpt>
      <trkpt lat="45.99485" lon="6.27502">
        <ele>1209</ele>
        <time>2021-06-22T15:51:01Z</time>
      </trkpt>
      <trkpt lat="45.99527" lon="6.27518">
        <ele>1192</ele>
        <time>2021-06-22T15:51:23Z</time>
      </trkpt>
      <trkpt lat="45.99548" lon="6.27514">
        <ele>1177</ele>
        <time>2021-06-22T15:51:33Z</time>
      </trkpt>
      <trkpt lat="45.99545" lon="6.27488">
        <ele>1167</ele>
        <time>2021-06-22T15:51:42Z</time>
      </trkpt>
      <trkpt lat="45.99567" lon="6.27485">
        <ele>1151</ele>
        <time>2021-06-22T15:51:53Z</time>
      </trkpt>
      <trkpt lat="45.99549" lon="6.27449">
        <ele>1147</ele>
        <time>2021-06-22T15:52:09Z</time>
      </trkpt>
      <trkpt lat="45.99529" lon="6.27346">
        <ele>1114</ele>
        <time>2021-06-22T15:52:46Z</time>
      </trkpt>
      <trkpt lat="45.99552" lon="6.27349">
        <ele>1101</ele>
        <time>2021-06-22T15:52:58Z</time>
      </trkpt>
      <trkpt lat="45.99547" lon="6.27314">
        <ele>1088</ele>
        <time>2021-06-22T15:53:10Z</time>
      </trkpt>
      <trkpt lat="45.99573" lon="6.2731">
        <ele>1071</ele>
        <time>2021-06-22T15:53:23Z</time>
      </trkpt>
      <trkpt lat="45.99571" lon="6.27283">
        <ele>1059</ele>
        <time>2021-06-22T15:53:32Z</time>
      </trkpt>
      <trkpt lat="45.99595" lon="6.27278">
        <ele>1045</ele>
        <time>2021-06-22T15:53:45Z</time>
      </trkpt>
      <trkpt lat="45.99582" lon="6.27246">
        <ele>1037</ele>
        <time>2021-06-22T15:53:57Z</time>
      </trkpt>
      <trkpt lat="45.99599" lon="6.27243">
        <ele>1029</ele>
        <time>2021-06-22T15:54:06Z</time>
      </trkpt>
      <trkpt lat="45.9959" lon="6.27209">
        <ele>1017</ele>
        <time>2021-06-22T15:54:19Z</time>
      </trkpt>
      <trkpt lat="45.99633" lon="6.27207">
        <ele>1004</ele>
        <time>2021-06-22T15:54:40Z</time>
      </trkpt>
      <trkpt lat="45.99673" lon="6.27236">
        <ele>999</ele>
        <time>2021-06-22T15:55:03Z</time>
      </trkpt>
      <trkpt lat="45.99692" lon="6.27232">
        <ele>993</ele>
        <time>2021-06-22T15:55:12Z</time>
      </trkpt>
      <trkpt lat="45.99719" lon="6.27261">
        <ele>989</ele>
        <time>2021-06-22T15:55:29Z</time>
      </trkpt>
      <trkpt lat="45.9975" lon="6.27276">
        <ele>979</ele>
        <time>2021-06-22T15:55:45Z</time>
      </trkpt>
      <trkpt lat="45.99764" lon="6.27267">
        <ele>974</ele>
        <time>2021-06-22T15:55:53Z</time>
      </trkpt>
      <trkpt lat="45.99782" lon="6.27227">
        <ele>966</ele>
        <time>2021-06-22T15:56:10Z</time>
      </trkpt>
      <trkpt lat="45.99783" lon="6.27203">
        <ele>964</ele>
        <time>2021-06-22T15:56:18Z</time>
      </trkpt>
      <trkpt lat="45.9977" lon="6.27181">
        <ele>967</ele>
        <time>2021-06-22T15:56:28Z</time>
      </trkpt>
      <trkpt lat="45.99767" lon="6.27107">
        <ele>957</ele>
        <time>2021-06-22T15:56:54Z</time>
      </trkpt>
      <trkpt lat="45.99749" lon="6.27097">
        <ele>960</ele>
        <time>2021-06-22T15:57:04Z</time>
      </trkpt>
      <trkpt lat="45.99717" lon="6.27033">
        <ele>952</ele>
        <time>2021-06-22T15:57:31Z</time>
      </trkpt>
      <trkpt lat="45.99695" lon="6.26964">
        <ele>945</ele>
        <time>2021-06-22T15:57:57Z</time>
      </trkpt>
      <trkpt lat="45.99699" lon="6.2694">
        <ele>941</ele>
        <time>2021-06-22T15:58:06Z</time>
      </trkpt>
      <trkpt lat="45.99692" lon="6.26921">
        <ele>939</ele>
        <time>2021-06-22T15:58:13Z</time>
      </trkpt>
      <trkpt lat="45.99683" lon="6.26906">
        <ele>937</ele>
        <time>2021-06-22T15:58:20Z</time>
      </trkpt>
      <trkpt lat="45.99651" lon="6.26882">
        <ele>932</ele>
        <time>2021-06-22T15:58:38Z</time>
      </trkpt>
      <trkpt lat="45.99622" lon="6.2688">
        <ele>928</ele>
        <time>2021-06-22T15:58:53Z</time>
      </trkpt>
      <trkpt lat="45.99595" lon="6.26888">
        <ele>927</ele>
        <time>2021-06-22T15:59:07Z</time>
      </trkpt>
      <trkpt lat="45.99591" lon="6.26864">
        <ele>922</ele>
        <time>2021-06-22T15:59:15Z</time>
      </trkpt>
      <trkpt lat="45.99618" lon="6.26838">
        <ele>919</ele>
        <time>2021-06-22T15:59:32Z</time>
      </trkpt>
      <trkpt lat="45.99649" lon="6.26817">
        <ele>915</ele>
        <time>2021-06-22T15:59:49Z</time>
      </trkpt>
      <trkpt lat="45.99684" lon="6.26812">
        <ele>913</ele>
        <time>2021-06-22T16:00:06Z</time>
      </trkpt>
      <trkpt lat="45.9971" lon="6.26819">
        <ele>912</ele>
        <time>2021-06-22T16:00:20Z</time>
      </trkpt>
      <trkpt lat="45.99772" lon="6.26819">
        <ele>903</ele>
        <time>2021-06-22T16:00:51Z</time>
      </trkpt>
      <trkpt lat="45.99791" lon="6.26854">
        <ele>905</ele>
        <time>2021-06-22T16:01:06Z</time>
      </trkpt>
      <trkpt lat="45.99799" lon="6.26849">
        <ele>902</ele>
        <time>2021-06-22T16:01:10Z</time>
      </trkpt>
      <trkpt lat="45.99783" lon="6.26797">
        <ele>896</ele>
        <time>2021-06-22T16:01:30Z</time>
      </trkpt>
      <trkpt lat="45.99761" lon="6.26784">
        <ele>898</ele>
        <time>2021-06-22T16:01:42Z</time>
      </trkpt>
      <trkpt lat="45.9975" lon="6.26773">
        <ele>897</ele>
        <time>2021-06-22T16:01:49Z</time>
      </trkpt>
      <trkpt lat="45.99743" lon="6.26755">
        <ele>893</ele>
        <time>2021-06-22T16:01:56Z</time>
      </trkpt>
      <trkpt lat="45.99717" lon="6.2672">
        <ele>886</ele>
        <time>2021-06-22T16:02:14Z</time>
      </trkpt>
      <trkpt lat="45.99698" lon="6.26703">
        <ele>882</ele>
        <time>2021-06-22T16:02:25Z</time>
      </trkpt>
      <trkpt lat="45.99637" lon="6.26638">
        <ele>867</ele>
        <time>2021-06-22T16:03:03Z</time>
      </trkpt>
      <trkpt lat="45.99599" lon="6.2662">
        <ele>861</ele>
        <time>2021-06-22T16:03:23Z</time>
      </trkpt>
      <trkpt lat="45.99607" lon="6.26607">
        <ele>858</ele>
        <time>2021-06-22T16:03:29Z</time>
      </trkpt>
      <trkpt lat="45.99671" lon="6.26581">
        <ele>855</ele>
        <time>2021-06-22T16:04:02Z</time>
      </trkpt>
      <trkpt lat="45.99692" lon="6.26569">
        <ele>849</ele>
        <time>2021-06-22T16:04:14Z</time>
      </trkpt>
      <trkpt lat="45.99688" lon="6.2655">
        <ele>845</ele>
        <time>2021-06-22T16:04:20Z</time>
      </trkpt>
      <trkpt lat="45.99656" lon="6.26514">
        <ele>842</ele>
        <time>2021-06-22T16:04:41Z</time>
      </trkpt>
      <trkpt lat="45.99637" lon="6.26499">
        <ele>838</ele>
        <time>2021-06-22T16:04:52Z</time>
      </trkpt>
      <trkpt lat="45.99593" lon="6.26495">
        <ele>836</ele>
        <time>2021-06-22T16:05:14Z</time>
      </trkpt>
      <trkpt lat="45.99567" lon="6.265">
        <ele>834</ele>
        <time>2021-06-22T16:05:27Z</time>
      </trkpt>
      <trkpt lat="45.99535" lon="6.26513">
        <ele>829</ele>
        <time>2021-06-22T16:05:43Z</time>
      </trkpt>
      <trkpt lat="45.9954" lon="6.26488">
        <ele>827</ele>
        <time>2021-06-22T16:05:52Z</time>
      </trkpt>
      <trkpt lat="45.99556" lon="6.26467">
        <ele>827</ele>
        <time>2021-06-22T16:06:03Z</time>
      </trkpt>
      <trkpt lat="45.99576" lon="6.26421">
        <ele>823</ele>
        <time>2021-06-22T16:06:22Z</time>
      </trkpt>
      <trkpt lat="45.9959" lon="6.26403">
        <ele>819</ele>
        <time>2021-06-22T16:06:32Z</time>
      </trkpt>
      <trkpt lat="45.99609" lon="6.26393">
        <ele>815</ele>
        <time>2021-06-22T16:06:42Z</time>
      </trkpt>
      <trkpt lat="45.99674" lon="6.26403">
        <ele>809</ele>
        <time>2021-06-22T16:07:14Z</time>
      </trkpt>
      <trkpt lat="45.99711" lon="6.26415">
        <ele>804</ele>
        <time>2021-06-22T16:07:33Z</time>
      </trkpt>
      <trkpt lat="45.99736" lon="6.26447">
        <ele>806</ele>
        <time>2021-06-22T16:07:50Z</time>
      </trkpt>
      <trkpt lat="45.99758" lon="6.26451">
        <ele>802</ele>
        <time>2021-06-22T16:08:01Z</time>
      </trkpt>
      <trkpt lat="45.99788" lon="6.26434">
        <ele>793</ele>
        <time>2021-06-22T16:08:17Z</time>
      </trkpt>
      <trkpt lat="45.99826" lon="6.26422">
        <ele>784</ele>
        <time>2021-06-22T16:08:37Z</time>
      </trkpt>
      <trkpt lat="45.99847" lon="6.26421">
        <ele>781</ele>
        <time>2021-06-22T16:08:47Z</time>
      </trkpt>
      <trkpt lat="45.99862" lon="6.26407">
        <ele>776</ele>
        <time>2021-06-22T16:08:56Z</time>
      </trkpt>
      <trkpt lat="45.99802" lon="6.26357">
        <ele>772</ele>
        <time>2021-06-22T16:09:31Z</time>
      </trkpt>
      <trkpt lat="45.99719" lon="6.26283">
        <ele>766</ele>
        <time>2021-06-22T16:10:20Z</time>
      </trkpt>
      <trkpt lat="45.99692" lon="6.26246">
        <ele>759</ele>
        <time>2021-06-22T16:10:38Z</time>
      </trkpt>
      <trkpt lat="45.99681" lon="6.26204">
        <ele>751</ele>
        <time>2021-06-22T16:10:54Z</time>
      </trkpt>
      <trkpt lat="45.99711" lon="6.26162">
        <ele>740</ele>
        <time>2021-06-22T16:11:15Z</time>
      </trkpt>
      <trkpt lat="45.99733" lon="6.26118">
        <ele>731</ele>
        <time>2021-06-22T16:11:34Z</time>
      </trkpt>
      <trkpt lat="45.99739" lon="6.26054">
        <ele>720</ele>
        <time>2021-06-22T16:11:56Z</time>
      </trkpt>
      <trkpt lat="45.99606" lon="6.26017">
        <ele>714</ele>
        <time>2021-06-22T16:13:04Z</time>
      </trkpt>
      <trkpt lat="45.99584" lon="6.25999">
        <ele>710</ele>
        <time>2021-06-22T16:13:17Z</time>
      </trkpt>
      <trkpt lat="45.99548" lon="6.25997">
        <ele>709</ele>
        <time>2021-06-22T16:13:35Z</time>
      </trkpt>
      <trkpt lat="45.99506" lon="6.2601">
        <ele>710</ele>
        <time>2021-06-22T16:13:56Z</time>
      </trkpt>
      <trkpt lat="45.99481" lon="6.25987">
        <ele>704</ele>
        <time>2021-06-22T16:14:11Z</time>
      </trkpt>
      <trkpt lat="45.99471" lon="6.25969">
        <ele>701</ele>
        <time>2021-06-22T16:14:19Z</time>
      </trkpt>
      <trkpt lat="45.99447" lon="6.25947">
        <ele>696</ele>
        <time>2021-06-22T16:14:33Z</time>
      </trkpt>
      <trkpt lat="45.99433" lon="6.25893">
        <ele>691</ele>
        <time>2021-06-22T16:14:53Z</time>
      </trkpt>
      <trkpt lat="45.9942" lon="6.25821">
        <ele>683</ele>
        <time>2021-06-22T16:15:19Z</time>
      </trkpt>
      <trkpt lat="45.9942" lon="6.25787">
        <ele>679</ele>
        <time>2021-06-22T16:15:31Z</time>
      </trkpt>
      <trkpt lat="45.99479" lon="6.2557">
        <ele>668</ele>
        <time>2021-06-22T16:16:52Z</time>
      </trkpt>
      <trkpt lat="45.99542" lon="6.25446">
        <ele>656</ele>
        <time>2021-06-22T16:17:46Z</time>
      </trkpt>
      <trkpt lat="45.99583" lon="6.25343">
        <ele>658</ele>
        <time>2021-06-22T16:18:27Z</time>
      </trkpt>
      <trkpt lat="45.99633" lon="6.25249">
        <ele>672</ele>
        <time>2021-06-22T16:19:08Z</time>
      </trkpt>
      <trkpt lat="45.99623" lon="6.25174">
        <ele>677</ele>
        <time>2021-06-22T16:19:35Z</time>
      </trkpt>
      <trkpt lat="45.99633" lon="6.25085">
        <ele>679</ele>
        <time>2021-06-22T16:20:06Z</time>
      </trkpt>
      <trkpt lat="45.9966" lon="6.2495">
        <ele>681</ele>
        <time>2021-06-22T16:20:55Z</time>
      </trkpt>
      <trkpt lat="45.99695" lon="6.24955">
        <ele>680</ele>
        <time>2021-06-22T16:21:12Z</time>
      </trkpt>
    </trkseg>
  </trk>
</gpx>